»·PEaware :: CFOOD CJS4-CYBR

CFOOD :: CJS4-CYBR

FLIGHT INFORMATION

Flight Status: Arrived
Operator: Unknown
More flights by this operator :: More flights under this callsign
Pilot: Vincent M. (370)
Aircraft: Diamond DA-62
(DA62)
More flights by this aircraft type
Origin: CJS4 Moose Jaw Mun
Canada
Destination: CYBR Brandon Muni
Canada
More flights between these airports :: More routes between these airports
Route:
File this flight plan on PilotEdge
Remarks: KOSH LEG #3
Altitude:
(Current/Filed)
5,500ft
Speed:
(Current/Filed)
180kts
Departed: 21-Jul-20 11:14 AM
Arrived: 21-Jul-20 12:38 PM
Distance/Time
Traveled:
211nm/1:24
Distance/Time
To Go:
Arrived

Flight Plot

Page will automatically refresh every two minutes.

Flight plan parsing failed; only flown route is shown


Map Options




Map Legend


Flown Route
Filed Route
Departure Airport
Arrival Airport
Navaid (VOR, NDB)
Fix

Horizontal Profiles

Position Reports

Time Latitude Longitude Heading Altitude Ground
Speed
21-Jul-20 11:10 50.434149 -105.389211 44 1899ft 0kts
21-Jul-20 11:11 50.434149 -105.389211 44 1899ft 0kts
21-Jul-20 11:12 50.431346 -105.384566 118 1898ft 14kts
21-Jul-20 11:13 50.440292 -105.396394 315 1997ft 98kts
21-Jul-20 11:14 50.453268 -105.381027 127 2751ft 101kts
21-Jul-20 11:15 50.426937 -105.341913 111 2882ft 158kts
21-Jul-20 11:16 50.424860 -105.275962 94 3578ft 145kts
21-Jul-20 11:17 50.421155 -105.214185 96 4375ft 140kts
21-Jul-20 11:18 50.416837 -105.153772 96 5173ft 139kts
21-Jul-20 11:19 50.412212 -105.091039 98 5493ft 159kts
21-Jul-20 11:20 50.406807 -105.019487 97 5491ft 168kts
21-Jul-20 11:21 50.401244 -104.945940 97 5490ft 170kts
21-Jul-20 11:22 50.395616 -104.872226 97 5490ft 170kts
21-Jul-20 11:23 50.389905 -104.798177 97 5490ft 170kts
21-Jul-20 11:24 50.384195 -104.724516 97 5490ft 170kts
21-Jul-20 11:25 50.378408 -104.650828 97 5491ft 170kts
21-Jul-20 11:26 50.372684 -104.578457 97 5506ft 169kts
21-Jul-20 11:27 50.366848 -104.505105 97 5506ft 170kts
21-Jul-20 11:28 50.360934 -104.431450 97 5506ft 170kts
21-Jul-20 11:29 50.354998 -104.358111 97 5506ft 170kts
21-Jul-20 11:30 50.348997 -104.284575 98 5505ft 170kts
21-Jul-20 11:31 50.342982 -104.211424 98 5505ft 169kts
21-Jul-20 11:32 50.336907 -104.138123 98 5505ft 169kts
21-Jul-20 11:34 50.330778 -104.064812 98 5505ft 169kts
21-Jul-20 11:35 50.324640 -103.991908 98 5505ft 169kts
21-Jul-20 11:36 50.318424 -103.918658 98 5505ft 169kts
21-Jul-20 11:37 50.312180 -103.845613 98 5506ft 169kts
21-Jul-20 11:38 50.305902 -103.772734 98 5506ft 169kts
21-Jul-20 11:39 50.299571 -103.699777 98 5506ft 169kts
21-Jul-20 11:40 50.293167 -103.626638 98 5520ft 168kts
21-Jul-20 11:41 50.286759 -103.553901 98 5522ft 169kts
21-Jul-20 11:42 50.280288 -103.480775 98 5525ft 170kts
21-Jul-20 11:43 50.273765 -103.407825 98 5525ft 169kts
21-Jul-20 11:44 50.267207 -103.335042 99 5524ft 168kts
21-Jul-20 11:45 50.260653 -103.262843 99 5524ft 166kts
21-Jul-20 11:45 50.255207 -103.203183 99 5524ft 166kts
21-Jul-20 11:46 50.248672 -103.131986 99 5524ft 166kts
21-Jul-20 11:48 50.240976 -103.049177 97 5525ft 164kts
21-Jul-20 11:49 50.234398 -102.978399 97 5524ft 164kts
21-Jul-20 11:50 50.227759 -102.907629 97 5525ft 164kts
21-Jul-20 11:51 50.221067 -102.836839 97 5524ft 164kts
21-Jul-20 11:51 50.215486 -102.778125 96 5519ft 164kts
21-Jul-20 11:52 50.208751 -102.707765 96 5497ft 164kts
21-Jul-20 11:53 50.201951 -102.637077 96 5497ft 164kts
21-Jul-20 11:54 50.195120 -102.566612 96 5496ft 164kts
21-Jul-20 11:55 50.188244 -102.496133 96 5495ft 164kts
21-Jul-20 11:56 50.181309 -102.425517 96 5497ft 164kts
21-Jul-20 11:57 50.174345 -102.355053 96 5498ft 164kts
21-Jul-20 11:58 50.167317 -102.284396 97 5497ft 164kts
21-Jul-20 11:59 50.160251 -102.213873 97 5497ft 164kts
21-Jul-20 12:00 50.153149 -102.143326 97 5497ft 164kts
21-Jul-20 12:01 50.146013 -102.072898 97 5498ft 164kts
21-Jul-20 12:02 50.138793 -102.002137 97 5497ft 164kts
21-Jul-20 12:03 50.134037 -101.955737 97 5498ft 164kts
21-Jul-20 12:04 50.134037 -101.955737 97 5498ft 164kts
21-Jul-20 12:05 50.134037 -101.955737 97 5498ft 164kts
21-Jul-20 12:06 50.133006 -101.945785 97 5497ft 164kts
21-Jul-20 12:07 50.125753 -101.875406 97 5497ft 165kts
21-Jul-20 12:08 50.118430 -101.804807 97 5496ft 164kts
21-Jul-20 12:09 50.111037 -101.734251 97 5497ft 164kts
21-Jul-20 12:10 50.103653 -101.663807 96 5497ft 165kts
21-Jul-20 12:11 50.096202 -101.593290 96 5497ft 164kts
21-Jul-20 12:12 50.088707 -101.522805 96 5508ft 164kts
21-Jul-20 12:13 50.081184 -101.452538 96 5515ft 165kts
21-Jul-20 12:14 50.073606 -101.382061 96 5516ft 165kts
21-Jul-20 12:15 50.065973 -101.311539 97 5517ft 165kts
21-Jul-20 12:16 50.058471 -101.242706 97 5509ft 165kts
21-Jul-20 12:17 50.050712 -101.171801 97 5499ft 165kts
21-Jul-20 12:18 50.042876 -101.100667 97 5502ft 168kts
21-Jul-20 12:19 50.034882 -101.028529 97 5500ft 169kts
21-Jul-20 12:20 50.026793 -100.956010 97 5498ft 170kts
21-Jul-20 12:21 50.018659 -100.883469 97 5500ft 170kts
21-Jul-20 12:22 50.010452 -100.810723 97 5500ft 170kts
21-Jul-20 12:23 50.002213 -100.738008 98 5501ft 170kts
21-Jul-20 12:24 49.993993 -100.665893 99 5498ft 169kts
21-Jul-20 12:25 49.985734 -100.593938 99 5500ft 169kts
21-Jul-20 12:26 49.977403 -100.521780 99 5500ft 169kts
21-Jul-20 12:27 49.969090 -100.450119 99 5499ft 169kts
21-Jul-20 12:28 49.960541 -100.378839 103 4767ft 172kts
21-Jul-20 12:29 49.943170 -100.309944 113 3767ft 170kts
21-Jul-20 12:30 49.924423 -100.243700 113 2755ft 158kts
21-Jul-20 12:31 49.908012 -100.185295 113 2363ft 130kts
21-Jul-20 12:32 49.906676 -100.133572 85 2177ft 119kts
21-Jul-20 12:33 49.907703 -100.082359 90 2031ft 111kts
21-Jul-20 12:34 49.907832 -100.036438 88 1672ft 108kts
21-Jul-20 12:35 49.907665 -99.992789 90 1512ft 96kts
21-Jul-20 12:36 49.907531 -99.954808 90 1344ft 51kts
21-Jul-20 12:37 49.905403 -99.946691 100 1344ft 0kts
21-Jul-20 12:38 49.905404 -99.946691 100 1344ft 0kts

Navigation Log

Ident Type
Flight plan parsing failed, navigation log unavailable